Aberdeen Regional Airport Aberdeen US
ICAO: KABR
IATA: ABR
Category: Medium
Scheduled Services: Yes

Elevation: 1302 ft
TransAlt. 18000 ft.

Airport Communications:
ASOS:125.875
MINNEAPOLIS CNTR:120.6
CTAF:122.7
HURON RDO:122.4
UNICOM:122.95

KABR Zoom In..

Runways:

(A) RW 13 length 6901 ft width 100 ft
---- / hdg 128

(B) RW 17 length 5500 ft width 100 ft
---- / hdg 173

(C) RW 31 length 6901 ft width 100 ft
ILS 109.90 / hdg 308

(D) RW 35 length 5500 ft width 100 ft
---- / hdg 353

Location; KABR
Day. 23 / Time. 09.53 Zulu
* Altimeter: 30.11
* Temperature: 17° c. 62.6°f.
* Wind from: 340° Speed 09 kn.
Dewpoint: 14° c.
Visibility: 10 Statute Miles.
Clouds: Clear (automated report).

KABR 230953Z AUTO 34009KT 10SM CLR 17/14 A3011 RMK AO2 SLP190 T01720144


Wind From 340°
Speed 09 kn.

 
 
jpsmedia.com for Web Design worldairports.se 2018   terms of use